createdAt,value
2022-11-13T07:14:58.386Z,99.90
2022-11-13T07:17:44.421Z,93.00
2022-11-13T07:20:31.081Z,98.80
2022-11-13T07:23:16.909Z,92.20
2022-11-13T07:26:04.191Z,91.40
2022-11-13T07:28:50.254Z,90.40
2022-11-13T07:31:35.894Z,88.00
2022-11-13T07:34:21.751Z,84.90
2022-11-13T07:37:07.931Z,80.10
2022-11-13T07:39:53.557Z,76.00
2022-11-13T07:42:39.807Z,70.60
2022-11-13T07:45:25.681Z,82.20
2022-11-13T07:48:11.096Z,66.80
2022-11-13T07:50:59.401Z,66.30
2022-11-13T07:53:45.332Z,65.10
2022-11-13T07:56:30.811Z,63.80
2022-11-13T07:59:16.212Z,63.80
2022-11-13T08:02:01.823Z,66.00
2022-11-13T08:07:35.593Z,89.20
2022-11-13T08:10:21.325Z,62.10
2022-11-13T08:13:09.211Z,61.30
2022-11-13T08:15:55.111Z,59.70
2022-11-13T08:18:41.021Z,72.70
2022-11-13T08:21:26.924Z,67.10
2022-11-13T08:24:13.065Z,57.10
2022-11-13T08:26:58.661Z,56.90
2022-11-13T08:29:44.635Z,57.40
2022-11-13T08:32:30.782Z,56.30
2022-11-13T08:35:19.568Z,56.50
2022-11-13T08:38:08.003Z,56.20
2022-11-13T08:40:57.815Z,56.40
2022-11-13T08:43:43.508Z,73.30
2022-11-13T08:46:29.334Z,72.30
2022-11-13T08:49:15.235Z,73.70
2022-11-13T08:52:01.477Z,72.40
2022-11-13T08:54:47.625Z,71.30
2022-11-13T08:57:33.458Z,75.00
2022-11-13T09:00:20.616Z,76.90
2022-11-13T09:03:06.721Z,77.40
2022-11-13T09:05:52.436Z,76.10
2022-11-13T09:08:38.266Z,77.10
2022-11-13T09:11:27.656Z,82.30
2022-11-13T09:14:13.762Z,80.90
2022-11-13T09:16:59.781Z,80.20
2022-11-13T09:19:45.798Z,80.60
2022-11-13T09:22:31.870Z,80.80
2022-11-13T09:25:17.668Z,81.60
2022-11-13T09:28:04.531Z,60.30
2022-11-13T09:30:50.596Z,58.80
2022-11-13T09:33:36.515Z,56.20
2022-11-13T09:36:22.334Z,57.30
2022-11-13T09:39:08.437Z,65.30
2022-11-13T09:42:20.180Z,59.20
2022-11-13T09:45:12.013Z,61.20
2022-11-13T09:48:09.468Z,65.90
2022-11-13T09:50:55.994Z,66.50
2022-11-13T09:53:42.125Z,64.00
2022-11-13T09:56:28.128Z,84.70
2022-11-13T09:59:26.537Z,65.50
2022-11-13T10:02:40.438Z,61.90
2022-11-13T10:05:50.223Z,61.30
2022-11-13T10:08:57.103Z,68.30
2022-11-13T10:11:50.635Z,67.50
2022-11-13T10:14:45.988Z,68.30
2022-11-13T10:17:56.404Z,64.00
2022-11-13T10:20:49.294Z,66.10
2022-11-13T10:23:38.260Z,63.00
2022-11-13T10:26:27.594Z,61.00
2022-11-13T10:29:16.272Z,61.80
2022-11-13T10:32:26.811Z,63.10
2022-11-13T10:35:12.791Z,62.00
2022-11-13T10:38:08.679Z,63.20
2022-11-13T10:41:12.372Z,65.70
2022-11-13T10:44:21.329Z,63.90
2022-11-13T10:47:42.317Z,63.90
2022-11-13T10:50:30.504Z,61.50
2022-11-13T10:53:20.541Z,61.10
2022-11-13T10:56:27.702Z,60.70
2022-11-13T10:59:16.874Z,60.40
2022-11-13T11:02:12.062Z,62.10
2022-11-13T11:05:07.183Z,64.00
2022-11-13T11:07:57.629Z,65.90
2022-11-13T11:11:14.041Z,63.30
2022-11-13T11:14:21.870Z,62.00
2022-11-13T11:17:12.767Z,65.80
2022-11-13T11:20:37.507Z,60.20
2022-11-13T11:23:56.285Z,60.70
2022-11-13T11:27:10.019Z,61.80
2022-11-13T11:30:39.412Z,60.50
2022-11-13T11:33:39.478Z,63.50
2022-11-13T11:36:33.115Z,59.70
2022-11-13T11:39:39.883Z,59.50
2022-11-13T11:42:38.984Z,65.30
2022-11-13T11:45:36.649Z,64.50
2022-11-13T11:48:31.099Z,62.50
2022-11-13T11:51:48.630Z,63.10
2022-11-13T11:54:53.217Z,84.10
2022-11-13T11:57:55.491Z,65.90
2022-11-13T12:00:49.746Z,66.10
2022-11-13T12:03:55.581Z,65.80
2022-11-13T12:07:00.439Z,65.80
2022-11-13T12:09:57.699Z,85.00
2022-11-13T12:12:58.673Z,67.60
2022-11-13T12:16:00.947Z,68.10
2022-11-13T12:18:49.985Z,67.50
2022-11-13T12:21:44.412Z,69.20
2022-11-13T12:24:51.009Z,75.30
2022-11-13T12:27:56.833Z,74.70
2022-11-13T12:30:47.777Z,69.90
2022-11-13T12:33:45.978Z,70.70
2022-11-13T12:36:31.730Z,69.70
2022-11-13T12:39:20.440Z,70.30
2022-11-13T12:42:08.941Z,70.50
2022-11-13T12:45:07.441Z,71.90
2022-11-13T12:47:52.875Z,72.10
2022-11-13T12:50:38.745Z,71.90
2022-11-13T12:53:26.121Z,72.50
2022-11-13T12:56:23.699Z,72.90
2022-11-13T12:59:31.964Z,72.60
2022-11-13T13:02:26.754Z,74.00
2022-11-13T13:05:31.388Z,74.50
2022-11-13T13:08:35.819Z,75.20
2022-11-13T13:11:40.035Z,76.70
2022-11-13T13:14:31.848Z,77.50
2022-11-13T13:17:21.736Z,77.50
2022-11-13T13:20:13.671Z,76.60
2022-11-13T13:23:00.036Z,76.50
2022-11-13T13:25:45.468Z,77.00
2022-11-13T13:28:31.497Z,77.80
2022-11-13T13:31:39.003Z,78.10
2022-11-13T13:34:35.389Z,79.10
2022-11-13T13:37:40.200Z,78.70
2022-11-13T13:40:38.742Z,80.10
2022-11-13T13:43:24.561Z,80.10
2022-11-13T13:46:09.949Z,79.50
2022-11-13T13:48:56.946Z,83.50
2022-11-13T13:51:44.181Z,82.20
2022-11-13T13:54:31.281Z,82.80
2022-11-13T13:57:17.129Z,81.90
2022-11-13T14:00:03.374Z,82.80
2022-11-13T14:02:50.850Z,83.10
2022-11-13T14:05:36.527Z,83.70
2022-11-13T14:08:26.088Z,84.60
2022-11-13T14:11:19.471Z,84.60
2022-11-13T14:14:08.985Z,85.50
2022-11-13T14:16:55.389Z,85.60
2022-11-13T14:19:40.992Z,86.40
2022-11-13T14:22:26.804Z,87.50
2022-11-13T14:25:20.856Z,90.00
2022-11-13T14:28:12.478Z,90.20
2022-11-13T14:31:00.890Z,91.30
2022-11-13T14:33:48.283Z,91.70
2022-11-13T14:36:34.308Z,90.40
2022-11-13T14:39:30.424Z,90.80
2022-11-13T14:42:17.746Z,90.80
2022-11-13T14:45:13.830Z,91.10
2022-11-13T14:48:02.210Z,91.20
2022-11-13T14:50:55.212Z,91.60
2022-11-13T14:53:42.008Z,91.70
2022-11-13T14:56:38.442Z,92.20
2022-11-13T14:59:26.941Z,92.00
2022-11-13T15:02:13.110Z,92.30
2022-11-13T15:04:58.558Z,92.30
2022-11-13T15:07:45.621Z,92.70
2022-11-13T15:10:31.247Z,92.70
2022-11-13T15:13:17.891Z,92.80
2022-11-13T15:16:04.001Z,92.90
2022-11-13T15:18:52.124Z,93.10
2022-11-13T15:21:37.750Z,93.20
2022-11-13T15:24:23.480Z,93.50
2022-11-13T15:27:13.202Z,93.80
2022-11-13T15:29:58.760Z,94.00
2022-11-13T15:32:44.284Z,94.10
2022-11-13T15:35:29.912Z,94.40
2022-11-13T15:38:15.429Z,94.60
2022-11-13T15:41:01.502Z,94.60
2022-11-13T15:43:47.955Z,95.00
2022-11-13T15:46:33.319Z,95.10
2022-11-13T15:49:18.845Z,94.90
2022-11-13T15:52:04.653Z,95.20
2022-11-13T15:54:50.461Z,95.50
2022-11-13T15:57:37.797Z,95.60
2022-11-13T16:00:27.255Z,95.80
2022-11-13T16:03:13.247Z,96.00
2022-11-13T16:05:59.246Z,96.30
2022-11-13T16:08:45.642Z,96.40
2022-11-13T16:11:32.389Z,96.50
2022-11-13T16:14:23.412Z,96.60
2022-11-13T16:17:16.510Z,96.80
2022-11-13T16:20:02.710Z,97.20
2022-11-13T16:22:48.589Z,97.30
2022-11-13T16:25:34.321Z,97.40
2022-11-13T16:28:20.228Z,97.60
2022-11-13T16:31:05.777Z,97.90
2022-11-13T16:33:51.545Z,98.60
2022-11-13T16:36:37.270Z,98.40
2022-11-13T16:39:22.946Z,98.40
2022-11-13T16:42:08.528Z,99.20
2022-11-13T16:44:54.159Z,99.00
2022-11-13T16:47:39.916Z,98.90
2022-11-13T16:50:28.663Z,98.70
2022-11-13T16:53:14.499Z,99.10
2022-11-13T16:56:00.753Z,98.60
2022-11-13T16:58:46.625Z,98.50
2022-11-13T17:01:32.019Z,98.40
2022-11-13T17:04:17.913Z,98.30
2022-11-13T17:07:03.510Z,98.50
2022-11-13T17:09:58.867Z,98.50
2022-11-13T17:12:50.851Z,98.60
2022-11-13T17:15:36.462Z,98.70
2022-11-13T17:18:21.899Z,98.80
2022-11-13T17:21:07.606Z,99.00
2022-11-13T17:24:01.176Z,99.10
2022-11-13T17:26:46.955Z,99.20
2022-11-13T17:29:32.403Z,99.50
2022-11-13T17:32:18.647Z,99.60
2022-11-13T17:35:05.926Z,99.70
2022-11-13T17:37:51.768Z,99.80
2022-11-13T17:40:37.220Z,99.80
2022-11-13T17:43:23.176Z,99.90
2022-11-13T17:46:13.892Z,99.90
2022-11-13T17:48:59.573Z,99.90
2022-11-13T17:51:45.152Z,99.90
2022-11-13T17:54:30.686Z,99.90
2022-11-13T17:57:15.977Z,99.90
2022-11-13T18:00:01.693Z,99.90
2022-11-13T18:02:47.441Z,99.90
2022-11-13T18:05:39.067Z,99.90
2022-11-13T18:08:26.215Z,99.90
2022-11-13T18:11:22.318Z,99.90
2022-11-13T18:14:08.804Z,99.90
2022-11-13T18:16:54.275Z,99.90
2022-11-13T18:19:39.531Z,99.90
